Carson City, Michigan
Current Conditions -  °F | °C
As of 9:35 AM on Tuesday 27 Jan 2015 (Local Time) from KAMN Reporting Station
Scattered Clouds Scattered Clouds  
Wind Chill:   Ceiling: Unl
Heat Index: 16°   Visibility: 7mi
Dew Point: 11°   Wind: 7mph
Humidity: 82%   Direction: 360°N
Pressure: 30.14"   Gusts: NA
Location:  43.18°N, 84.85°W
Report Text: KAMN 271435Z AUTO 36006KT 7SM SCT075 M09/M11 A3014 RMK AO2 T10891115
Loading
Personal Weather Stations






























Interactive Weather Map New forecast layout! Learn more

10-Day Weather Forecast

Advertisements
Track Severe Weather on mobile